createdAt,value
2022-11-10T00:01:20.040Z,16.10
2022-11-10T00:03:40.521Z,16.07
2022-11-10T00:06:03.475Z,16.06
2022-11-10T00:08:23.764Z,16.05
2022-11-10T00:11:02.144Z,16.04
2022-11-10T00:13:25.011Z,16.01
2022-11-10T00:16:03.921Z,15.98
2022-11-10T00:18:24.215Z,15.97
2022-11-10T00:20:45.141Z,15.97
2022-11-10T00:23:05.358Z,15.93
2022-11-10T00:25:28.273Z,15.93
2022-11-10T00:28:09.333Z,15.88
2022-11-10T00:30:29.642Z,15.86
2022-11-10T00:32:49.949Z,15.84
2022-11-10T00:35:10.240Z,15.83
2022-11-10T00:37:30.244Z,15.81
2022-11-10T00:39:52.650Z,15.78
2022-11-10T00:42:13.036Z,15.76
2022-11-10T00:44:33.627Z,15.75
2022-11-10T00:46:53.612Z,15.74
2022-11-10T00:49:14.029Z,15.70
2022-11-10T00:51:34.499Z,15.67
2022-11-10T00:53:55.546Z,15.65
2022-11-10T00:56:15.837Z,15.62
2022-11-10T00:58:36.987Z,15.58
2022-11-10T01:01:04.174Z,15.55
2022-11-10T01:03:24.614Z,15.53
2022-11-10T01:05:45.057Z,15.51
2022-11-10T01:08:05.788Z,15.48
2022-11-10T01:10:28.463Z,15.45
2022-11-10T01:12:49.036Z,15.41
2022-11-10T01:15:10.366Z,15.37
2022-11-10T01:17:30.705Z,15.35
2022-11-10T01:19:51.058Z,15.32
2022-11-10T01:22:11.317Z,15.28
2022-11-10T01:24:32.578Z,15.22
2022-11-10T01:26:52.685Z,15.18
2022-11-10T01:29:14.732Z,15.15
2022-11-10T01:31:46.976Z,15.11
2022-11-10T01:34:07.514Z,15.06
2022-11-10T01:36:27.866Z,15.02
2022-11-10T01:38:48.148Z,14.98
2022-11-10T01:41:10.090Z,14.95
2022-11-10T01:43:31.173Z,14.92
2022-11-10T01:46:06.688Z,14.88
2022-11-10T01:48:59.146Z,14.81
2022-11-10T01:51:31.602Z,14.78
2022-11-10T01:53:58.789Z,14.71
2022-11-10T01:56:20.956Z,14.69
2022-11-10T01:58:50.978Z,14.62
2022-11-10T02:01:11.467Z,14.58
2022-11-10T02:03:54.056Z,14.54
2022-11-10T02:06:16.361Z,14.49
2022-11-10T02:08:36.797Z,14.47
2022-11-10T02:10:57.137Z,14.42
2022-11-10T02:13:17.328Z,14.39
2022-11-10T02:15:38.178Z,14.34
2022-11-10T02:17:58.440Z,14.31
2022-11-10T02:20:26.876Z,14.27
2022-11-10T02:22:47.318Z,14.22
2022-11-10T02:25:07.984Z,14.19
2022-11-10T02:27:40.593Z,14.14
2022-11-10T02:30:01.702Z,14.09
2022-11-10T02:32:22.588Z,14.07
2022-11-10T02:34:43.494Z,14.02
2022-11-10T02:37:04.069Z,14.00
2022-11-10T02:39:24.128Z,13.97
2022-11-10T02:41:44.254Z,13.95
2022-11-10T02:44:13.483Z,13.90
2022-11-10T02:46:34.064Z,13.84
2022-11-10T02:48:54.743Z,13.82
2022-11-10T02:51:14.959Z,13.80
2022-11-10T02:53:38.269Z,13.73
2022-11-10T02:55:59.130Z,13.72
2022-11-10T02:58:19.421Z,13.67
2022-11-10T03:00:39.462Z,13.65
2022-11-10T03:03:07.107Z,13.61
2022-11-10T03:05:31.020Z,13.56
2022-11-10T03:07:55.906Z,13.53
2022-11-10T03:10:17.871Z,13.50
2022-11-10T03:12:38.292Z,13.45
2022-11-10T03:14:59.833Z,13.41
2022-11-10T03:17:21.266Z,13.35
2022-11-10T03:19:41.517Z,13.32
2022-11-10T03:22:02.130Z,13.29
2022-11-10T03:24:22.068Z,13.25
2022-11-10T03:26:49.568Z,13.20
2022-11-10T03:29:09.755Z,13.18
2022-11-10T03:31:29.856Z,13.14
2022-11-10T03:33:50.049Z,13.11
2022-11-10T03:36:17.656Z,13.07
2022-11-10T03:38:37.979Z,13.02
2022-11-10T03:43:39.522Z,12.93
2022-11-10T03:45:59.675Z,12.89
2022-11-10T03:48:23.128Z,12.87
2022-11-10T03:50:46.073Z,12.83
2022-11-10T03:53:06.412Z,12.80
2022-11-10T03:55:27.157Z,12.75
2022-11-10T03:57:54.795Z,12.72
2022-11-10T04:00:15.313Z,12.69
2022-11-10T04:02:36.297Z,12.65
2022-11-10T04:05:15.249Z,12.62
2022-11-10T04:07:56.644Z,12.56
2022-11-10T04:10:16.986Z,12.52
2022-11-10T04:12:55.704Z,12.50
2022-11-10T04:15:34.629Z,12.45
2022-11-10T04:17:54.949Z,12.40
2022-11-10T04:20:15.514Z,12.38
2022-11-10T04:22:54.407Z,12.34
2022-11-10T04:25:14.748Z,12.31
2022-11-10T04:27:34.980Z,12.28
2022-11-10T04:29:55.202Z,12.24
2022-11-10T04:32:15.372Z,12.21
2022-11-10T04:34:38.588Z,12.19
2022-11-10T04:36:59.074Z,12.16
2022-11-10T04:39:19.080Z,12.13
2022-11-10T04:41:39.743Z,12.09
2022-11-10T04:44:00.721Z,12.07
2022-11-10T04:46:26.639Z,12.04
2022-11-10T04:48:49.918Z,11.99
2022-11-10T04:51:10.193Z,11.96
2022-11-10T04:53:30.310Z,11.95
2022-11-10T04:55:50.662Z,11.94
2022-11-10T04:58:11.728Z,11.92
2022-11-10T05:00:32.502Z,11.92
2022-11-10T05:02:52.617Z,11.89
2022-11-10T05:05:15.884Z,11.87
2022-11-10T05:07:35.967Z,11.87
2022-11-10T05:09:56.328Z,11.82
2022-11-10T05:12:29.985Z,11.80
2022-11-10T05:14:52.276Z,11.77
2022-11-10T05:17:12.341Z,11.75
2022-11-10T05:19:32.579Z,11.73
2022-11-10T05:21:54.638Z,11.71
2022-11-10T05:24:15.030Z,11.69
2022-11-10T05:26:35.105Z,11.67
2022-11-10T05:29:02.287Z,11.64
2022-11-10T05:31:22.686Z,11.62
2022-11-10T05:33:45.197Z,11.60
2022-11-10T05:36:09.761Z,11.60
2022-11-10T05:38:29.742Z,11.57
2022-11-10T05:40:50.240Z,11.56
2022-11-10T05:43:10.809Z,11.54
2022-11-10T05:45:31.018Z,11.51
2022-11-10T05:47:51.612Z,11.48
2022-11-10T05:50:11.953Z,11.46
2022-11-10T05:52:32.784Z,11.46
2022-11-10T05:54:55.498Z,11.45
2022-11-10T05:57:21.941Z,11.42
2022-11-10T05:59:42.416Z,11.41
2022-11-10T06:02:02.758Z,11.37
2022-11-10T06:04:23.131Z,11.38
2022-11-10T06:06:46.303Z,11.36
2022-11-10T06:09:09.157Z,11.37
2022-11-10T06:11:29.664Z,11.37
2022-11-10T06:13:50.727Z,11.36
2022-11-10T06:16:11.336Z,11.33
2022-11-10T06:18:31.860Z,11.32
2022-11-10T06:20:57.074Z,11.29
2022-11-10T06:23:17.387Z,11.28
2022-11-10T06:25:42.412Z,11.25
2022-11-10T06:28:06.770Z,11.25
2022-11-10T06:30:28.213Z,11.22
2022-11-10T06:32:49.833Z,11.21
2022-11-10T06:35:11.317Z,11.16
2022-11-10T06:37:41.135Z,11.14
2022-11-10T06:40:01.795Z,11.15
2022-11-10T06:42:22.208Z,11.15
2022-11-10T06:44:42.691Z,11.12
2022-11-10T06:47:02.731Z,11.08
2022-11-10T06:49:22.880Z,11.08
2022-11-10T06:51:42.860Z,11.10
2022-11-10T06:54:03.158Z,11.10
2022-11-10T06:56:26.173Z,11.09
2022-11-10T06:58:46.580Z,11.09
2022-11-10T07:01:07.091Z,11.08
2022-11-10T07:03:28.972Z,11.10
2022-11-10T07:05:49.448Z,11.10
2022-11-10T07:08:15.869Z,11.13
2022-11-10T07:10:37.267Z,11.14
2022-11-10T07:12:59.345Z,11.20
2022-11-10T07:15:21.731Z,11.20
2022-11-10T07:17:43.747Z,11.25
2022-11-10T07:20:04.519Z,11.30
2022-11-10T07:22:25.117Z,11.30
2022-11-10T07:24:46.684Z,11.34
2022-11-10T07:27:08.280Z,11.33
2022-11-10T07:29:28.321Z,11.34
2022-11-10T07:31:50.356Z,11.31
2022-11-10T07:34:11.096Z,11.29
2022-11-10T07:36:31.416Z,11.32
2022-11-10T07:38:52.864Z,11.37
2022-11-10T07:41:13.393Z,11.44
2022-11-10T07:43:35.744Z,11.51
2022-11-10T07:45:56.152Z,11.58
2022-11-10T07:48:17.043Z,11.67
2022-11-10T07:50:37.717Z,11.74
2022-11-10T07:53:10.156Z,11.80
2022-11-10T07:55:30.501Z,11.89
2022-11-10T07:58:01.164Z,11.97
2022-11-10T08:00:21.475Z,12.06
2022-11-10T08:02:41.802Z,12.16
2022-11-10T08:05:02.492Z,12.26
2022-11-10T08:07:25.922Z,12.35
2022-11-10T08:09:46.346Z,12.45
2022-11-10T08:12:07.858Z,12.54
2022-11-10T08:14:28.087Z,12.63
2022-11-10T08:16:48.612Z,12.73
2022-11-10T08:19:09.469Z,12.81
2022-11-10T08:21:30.481Z,12.90
2022-11-10T08:23:50.635Z,12.98
2022-11-10T08:26:16.658Z,13.06
2022-11-10T08:28:38.848Z,13.14
2022-11-10T08:31:04.273Z,13.20
2022-11-10T08:33:28.975Z,13.26
2022-11-10T08:35:51.991Z,13.36
2022-11-10T08:38:18.648Z,13.43
2022-11-10T08:40:40.288Z,13.46
2022-11-10T08:43:02.994Z,13.52
2022-11-10T08:45:23.331Z,13.58
2022-11-10T08:47:46.183Z,13.62
2022-11-10T08:50:08.333Z,13.69
2022-11-10T08:52:28.561Z,13.72
2022-11-10T08:54:49.229Z,13.75
2022-11-10T08:57:10.752Z,13.77
2022-11-10T08:59:31.395Z,13.80
2022-11-10T09:01:51.968Z,13.81
2022-11-10T09:04:20.542Z,13.82
2022-11-10T09:06:41.902Z,13.86
2022-11-10T09:09:02.180Z,13.90
2022-11-10T09:11:22.704Z,13.97
2022-11-10T09:13:44.055Z,14.01
2022-11-10T09:16:05.228Z,14.06
2022-11-10T09:18:26.653Z,14.09
2022-11-10T09:20:51.669Z,14.14
2022-11-10T09:23:17.647Z,14.22
2022-11-10T09:25:38.990Z,14.27
2022-11-10T09:27:59.229Z,14.31
2022-11-10T09:30:19.801Z,14.36
2022-11-10T09:32:40.191Z,14.41
2022-11-10T09:35:01.255Z,14.44
2022-11-10T09:37:23.640Z,14.47
2022-11-10T09:39:44.144Z,14.50
2022-11-10T09:42:06.887Z,14.55
2022-11-10T09:44:38.745Z,14.57
2022-11-10T09:47:56.349Z,14.61
2022-11-10T09:50:44.647Z,14.63
2022-11-10T09:53:10.827Z,14.65
2022-11-10T09:55:43.296Z,14.68
2022-11-10T09:58:04.472Z,14.72
2022-11-10T10:00:25.538Z,14.75
2022-11-10T10:02:58.172Z,14.78
2022-11-10T10:05:47.466Z,14.83
2022-11-10T10:08:14.847Z,14.89
2022-11-10T10:10:47.413Z,14.93
2022-11-10T10:13:45.653Z,14.97
2022-11-10T10:16:16.566Z,15.06
2022-11-10T10:19:13.945Z,15.13
2022-11-10T10:21:48.287Z,15.22
2022-11-10T10:24:22.065Z,15.30
2022-11-10T10:26:52.419Z,15.37
2022-11-10T10:29:21.268Z,15.44
2022-11-10T10:31:43.849Z,15.52
2022-11-10T10:34:05.080Z,15.58
2022-11-10T10:36:30.661Z,15.64
2022-11-10T10:39:03.527Z,15.71
2022-11-10T10:41:30.779Z,15.78
2022-11-10T10:43:54.878Z,15.88
2022-11-10T10:46:16.262Z,15.95
2022-11-10T10:48:36.464Z,16.03
2022-11-10T10:50:56.751Z,16.15
2022-11-10T10:53:24.406Z,16.27
2022-11-10T10:55:53.953Z,16.42
2022-11-10T10:58:52.940Z,16.53
2022-11-10T11:01:16.228Z,16.61
2022-11-10T11:03:45.820Z,16.66
2022-11-10T11:06:15.125Z,16.69
2022-11-10T11:08:42.884Z,16.73
2022-11-10T11:11:10.969Z,16.78
2022-11-10T11:13:34.440Z,16.91
2022-11-10T11:16:07.289Z,17.08
2022-11-10T11:18:30.361Z,17.23
2022-11-10T11:21:18.404Z,17.35
2022-11-10T11:24:20.585Z,17.40
2022-11-10T11:26:46.165Z,17.44
2022-11-10T11:29:51.066Z,17.45
2022-11-10T11:32:25.347Z,17.48
2022-11-10T11:35:13.923Z,17.49
2022-11-10T11:37:52.061Z,17.56
2022-11-10T11:40:40.555Z,17.62
2022-11-10T11:43:28.062Z,17.72
2022-11-10T11:45:58.507Z,17.88
2022-11-10T11:48:47.556Z,18.04
2022-11-10T11:51:20.091Z,18.23
2022-11-10T11:54:18.485Z,18.38
2022-11-10T11:56:44.862Z,18.57
2022-11-10T11:59:17.364Z,18.70
2022-11-10T12:02:03.919Z,18.88
2022-11-10T12:04:51.637Z,19.05
2022-11-10T12:07:20.896Z,19.22
2022-11-10T12:09:47.109Z,19.36
2022-11-10T12:12:22.760Z,19.50
2022-11-10T12:14:58.395Z,19.60
2022-11-10T12:17:29.617Z,19.73
2022-11-10T12:20:38.416Z,19.82
2022-11-10T12:23:43.167Z,19.93
2022-11-10T12:26:26.478Z,20.00
2022-11-10T12:28:55.772Z,20.05
2022-11-10T12:31:21.568Z,20.10
2022-11-10T12:33:53.519Z,20.15
2022-11-10T12:36:17.825Z,20.21
2022-11-10T12:39:00.516Z,20.20
2022-11-10T12:41:32.930Z,20.24
2022-11-10T12:44:21.428Z,20.20
2022-11-10T12:46:49.475Z,20.22
2022-11-10T12:49:36.578Z,20.20
2022-11-10T12:52:18.455Z,20.17
2022-11-10T12:54:42.555Z,20.15
2022-11-10T12:57:13.614Z,20.12
2022-11-10T12:59:51.837Z,20.08
2022-11-10T13:02:18.849Z,20.08
2022-11-10T13:04:49.779Z,20.08
2022-11-10T13:07:17.072Z,20.11
2022-11-10T13:09:40.354Z,20.11
2022-11-10T13:12:16.942Z,20.11
2022-11-10T13:14:38.479Z,20.15
2022-11-10T13:17:01.741Z,20.17
2022-11-10T13:19:25.203Z,20.18
2022-11-10T13:21:51.506Z,20.14
2022-11-10T13:24:19.883Z,20.11
2022-11-10T13:26:39.848Z,20.05
2022-11-10T13:29:02.700Z,19.98
2022-11-10T13:31:55.035Z,19.89
2022-11-10T13:34:18.695Z,19.83
2022-11-10T13:36:47.029Z,19.75
2022-11-10T13:39:45.625Z,19.68
2022-11-10T13:42:09.265Z,19.66
2022-11-10T13:44:33.327Z,19.62
2022-11-10T13:47:10.884Z,19.60
2022-11-10T13:49:40.425Z,19.54
2022-11-10T13:52:17.310Z,19.48
2022-11-10T13:55:09.481Z,19.43
2022-11-10T13:57:38.923Z,19.39
2022-11-10T14:00:11.380Z,19.36
2022-11-10T14:02:34.750Z,19.31
2022-11-10T14:04:56.745Z,19.26
2022-11-10T14:07:19.739Z,19.22
2022-11-10T14:09:48.823Z,19.18
2022-11-10T14:12:21.639Z,19.12
2022-11-10T14:15:06.935Z,19.09
2022-11-10T14:17:45.754Z,19.02
2022-11-10T14:20:32.811Z,18.99
2022-11-10T14:22:53.858Z,18.96
2022-11-10T14:25:39.712Z,18.89
2022-11-10T14:27:59.891Z,18.88
2022-11-10T14:30:26.058Z,18.85
2022-11-10T14:35:51.786Z,18.80
2022-11-10T14:38:27.384Z,18.79
2022-11-10T14:40:48.852Z,18.77
2022-11-10T14:43:30.220Z,18.74
2022-11-10T14:45:52.905Z,18.74
2022-11-10T14:48:20.295Z,18.71
2022-11-10T14:50:58.617Z,18.70
2022-11-10T14:53:29.292Z,18.65
2022-11-10T14:55:54.639Z,18.63
2022-11-10T14:58:34.237Z,18.58
2022-11-10T15:01:10.647Z,18.52
2022-11-10T15:03:39.622Z,18.47
2022-11-10T15:06:24.564Z,18.42
2022-11-10T15:08:52.835Z,18.36
2022-11-10T15:11:39.851Z,18.29
2022-11-10T15:14:00.237Z,18.25
2022-11-10T15:16:31.781Z,18.18
2022-11-10T15:18:55.492Z,18.12
2022-11-10T15:21:21.854Z,18.06
2022-11-10T15:23:43.884Z,18.00
2022-11-10T15:26:16.769Z,17.94
2022-11-10T15:28:49.608Z,17.88
2022-11-10T15:31:34.612Z,17.76
2022-11-10T15:34:01.112Z,17.69
2022-11-10T15:36:32.269Z,17.62
2022-11-10T15:39:23.261Z,17.52
2022-11-10T15:41:47.650Z,17.46
2022-11-10T15:44:23.572Z,17.38
2022-11-10T15:46:44.774Z,17.32
2022-11-10T15:49:11.309Z,17.25
2022-11-10T15:51:34.784Z,17.18
2022-11-10T15:53:55.022Z,17.12
2022-11-10T15:56:17.866Z,17.05
2022-11-10T15:58:37.923Z,16.99
2022-11-10T16:00:58.508Z,16.94
2022-11-10T16:03:21.048Z,16.85
2022-11-10T16:05:41.525Z,16.79
2022-11-10T16:08:10.507Z,16.72
2022-11-10T16:10:30.931Z,16.65
2022-11-10T16:12:51.097Z,16.59
2022-11-10T16:15:19.830Z,16.50
2022-11-10T16:17:39.897Z,16.46
2022-11-10T16:20:00.427Z,16.39
2022-11-10T16:22:21.057Z,16.33
2022-11-10T16:24:42.123Z,16.25
2022-11-10T16:27:05.774Z,16.20
2022-11-10T16:29:26.827Z,16.13
2022-11-10T16:31:47.080Z,16.05
2022-11-10T16:34:12.639Z,15.99
2022-11-10T16:36:34.324Z,15.94
2022-11-10T16:38:58.482Z,15.85
2022-11-10T16:41:19.190Z,15.79
2022-11-10T16:43:39.826Z,15.74
2022-11-10T16:46:05.883Z,15.67
2022-11-10T16:48:32.853Z,15.59
2022-11-10T16:50:56.012Z,15.53
2022-11-10T16:53:18.202Z,15.45
2022-11-10T16:55:38.770Z,15.39
2022-11-10T16:57:59.352Z,15.34
2022-11-10T17:00:20.002Z,15.25
2022-11-10T17:02:41.685Z,15.18
2022-11-10T17:05:02.229Z,15.14
2022-11-10T17:07:26.780Z,15.06
2022-11-10T17:09:47.311Z,15.00
2022-11-10T17:12:12.693Z,14.93
2022-11-10T17:14:34.147Z,14.87
2022-11-10T17:16:56.908Z,14.81
2022-11-10T17:19:24.090Z,14.75
2022-11-10T17:21:45.536Z,14.67
2022-11-10T17:24:06.990Z,14.62
2022-11-10T17:26:27.970Z,14.56
2022-11-10T17:28:50.941Z,14.50
2022-11-10T17:31:13.734Z,14.43
2022-11-10T17:33:36.664Z,14.37
2022-11-10T17:35:58.017Z,14.32
2022-11-10T17:38:24.376Z,14.27
2022-11-10T17:40:44.839Z,14.22
2022-11-10T17:43:04.902Z,14.16
2022-11-10T17:45:27.365Z,14.10
2022-11-10T17:47:49.086Z,14.04
2022-11-10T17:50:09.372Z,13.97
2022-11-10T17:52:29.929Z,13.93
2022-11-10T17:54:50.329Z,13.88
2022-11-10T17:57:11.090Z,13.82
2022-11-10T17:59:31.681Z,13.77
2022-11-10T18:01:52.589Z,13.72
2022-11-10T18:04:16.456Z,13.67
2022-11-10T18:06:36.817Z,13.64
2022-11-10T18:08:57.485Z,13.58
2022-11-10T18:11:22.037Z,13.53
2022-11-10T18:13:43.892Z,13.48
2022-11-10T18:16:05.000Z,13.45
2022-11-10T18:18:25.362Z,13.40
2022-11-10T18:20:45.779Z,13.34
2022-11-10T18:23:11.190Z,13.29
2022-11-10T18:25:31.539Z,13.24
2022-11-10T18:27:52.484Z,13.19
2022-11-10T18:30:14.539Z,13.17
2022-11-10T18:32:34.761Z,13.12
2022-11-10T18:34:55.356Z,13.08
2022-11-10T18:37:19.164Z,13.04
2022-11-10T18:39:39.464Z,13.00
2022-11-10T18:42:00.258Z,12.96
2022-11-10T18:44:21.188Z,12.90
2022-11-10T18:46:45.285Z,12.86
2022-11-10T18:49:05.475Z,12.83
2022-11-10T18:51:26.147Z,12.79
2022-11-10T18:53:46.241Z,12.75
2022-11-10T18:56:09.318Z,12.71
2022-11-10T18:58:29.707Z,12.69
2022-11-10T19:00:51.751Z,12.65
2022-11-10T19:03:14.811Z,12.60
2022-11-10T19:05:35.452Z,12.57
2022-11-10T19:07:55.955Z,12.54
2022-11-10T19:10:19.181Z,12.48
2022-11-10T19:12:39.427Z,12.45
2022-11-10T19:15:01.494Z,12.41
2022-11-10T19:17:22.256Z,12.39
2022-11-10T19:19:42.896Z,12.35
2022-11-10T19:22:04.957Z,12.31
2022-11-10T19:24:28.357Z,12.27
2022-11-10T19:26:51.686Z,12.24
2022-11-10T19:29:16.110Z,12.20
2022-11-10T19:31:36.664Z,12.17
2022-11-10T19:33:57.709Z,12.14
2022-11-10T19:36:23.176Z,12.10
2022-11-10T19:38:47.535Z,12.06
2022-11-10T19:41:12.468Z,12.03
2022-11-10T19:43:33.549Z,12.00
2022-11-10T19:45:53.822Z,11.97
2022-11-10T19:48:17.312Z,11.94
2022-11-10T19:50:37.609Z,11.93
2022-11-10T19:52:58.204Z,11.89
2022-11-10T19:55:18.552Z,11.87
2022-11-10T19:57:38.513Z,11.83
2022-11-10T19:59:58.700Z,11.81
2022-11-10T20:02:19.125Z,11.79
2022-11-10T20:04:59.310Z,11.76
2022-11-10T20:07:58.607Z,11.74
2022-11-10T20:10:18.567Z,11.70
2022-11-10T20:12:41.575Z,11.68
2022-11-10T20:15:01.917Z,11.65
2022-11-10T20:17:21.977Z,11.62
2022-11-10T20:19:42.501Z,11.60
2022-11-10T20:22:02.986Z,11.58
2022-11-10T20:24:23.122Z,11.55
2022-11-10T20:26:45.314Z,11.53
2022-11-10T20:29:05.616Z,11.51
2022-11-10T20:31:26.303Z,11.47
2022-11-10T20:33:48.494Z,11.44
2022-11-10T20:36:18.936Z,11.41
2022-11-10T20:38:47.133Z,11.39
2022-11-10T20:41:13.590Z,11.35
2022-11-10T20:43:38.261Z,11.33
2022-11-10T20:45:58.829Z,11.30
2022-11-10T20:48:19.572Z,11.27
2022-11-10T20:50:40.643Z,11.23
2022-11-10T20:53:01.907Z,11.20
2022-11-10T20:55:51.709Z,11.17
2022-11-10T20:58:03.145Z,11.13
2022-11-10T21:00:24.202Z,11.11
2022-11-10T21:02:44.539Z,11.09
2022-11-10T21:05:05.899Z,11.07
2022-11-10T21:07:29.700Z,11.05
2022-11-10T21:09:50.194Z,11.03
2022-11-10T21:12:31.404Z,11.00
2022-11-10T21:14:51.835Z,10.97
2022-11-10T21:17:12.295Z,10.94
2022-11-10T21:19:34.581Z,10.93
2022-11-10T21:21:54.579Z,10.90
2022-11-10T21:24:15.252Z,10.88
2022-11-10T21:26:35.813Z,10.87
2022-11-10T21:28:57.528Z,10.85
2022-11-10T21:31:18.609Z,10.84
2022-11-10T21:33:38.671Z,10.81
2022-11-10T21:36:05.250Z,10.79
2022-11-10T21:38:27.235Z,10.76
2022-11-10T21:40:47.682Z,10.75
2022-11-10T21:43:09.080Z,10.73
2022-11-10T21:45:29.856Z,10.70
2022-11-10T21:47:52.459Z,10.66
2022-11-10T21:50:15.165Z,10.63
2022-11-10T21:52:35.799Z,10.61
2022-11-10T21:54:56.375Z,10.59
2022-11-10T21:57:18.941Z,10.56
2022-11-10T21:59:39.665Z,10.56
2022-11-10T22:02:00.361Z,10.54
2022-11-10T22:04:23.386Z,10.51
2022-11-10T22:07:08.948Z,10.49
2022-11-10T22:09:49.278Z,10.48
2022-11-10T22:12:35.095Z,10.46
2022-11-10T22:15:15.671Z,10.45
2022-11-10T22:17:54.813Z,10.43
2022-11-10T22:20:16.245Z,10.39
2022-11-10T22:22:36.514Z,10.38
2022-11-10T22:24:57.367Z,10.37
2022-11-10T22:27:17.493Z,10.34
2022-11-10T22:29:38.124Z,10.29
2022-11-10T22:31:59.827Z,10.28
2022-11-10T22:34:20.969Z,10.27
2022-11-10T22:36:41.254Z,10.24
2022-11-10T22:39:03.943Z,10.21
2022-11-10T22:41:43.953Z,10.17
2022-11-10T22:44:05.232Z,10.14
2022-11-10T22:46:28.447Z,10.13
2022-11-10T22:48:48.467Z,10.11
2022-11-10T22:51:09.078Z,10.09
2022-11-10T22:53:30.681Z,10.08
2022-11-10T22:55:50.865Z,10.05
2022-11-10T22:58:14.133Z,10.03
2022-11-10T23:00:34.248Z,10.01
2022-11-10T23:02:54.727Z,10.00
2022-11-10T23:05:15.745Z,9.98
2022-11-10T23:07:36.010Z,9.96
2022-11-10T23:09:56.164Z,9.93
2022-11-10T23:12:16.727Z,9.91
2022-11-10T23:14:37.071Z,9.91
2022-11-10T23:16:57.440Z,9.88
2022-11-10T23:19:17.610Z,9.86
2022-11-10T23:21:37.721Z,9.83
2022-11-10T23:23:58.344Z,9.80
2022-11-10T23:26:24.067Z,9.80
2022-11-10T23:28:47.994Z,9.77
2022-11-10T23:31:18.065Z,9.76
2022-11-10T23:33:39.690Z,9.76
2022-11-10T23:36:00.447Z,9.74
2022-11-10T23:38:20.594Z,9.73
2022-11-10T23:40:41.126Z,9.71
2022-11-10T23:43:01.385Z,9.70
2022-11-10T23:45:21.510Z,9.68
2022-11-10T23:47:42.061Z,9.66
2022-11-10T23:50:03.239Z,9.67
2022-11-10T23:52:23.523Z,9.64
2022-11-10T23:54:43.743Z,9.63
2022-11-10T23:57:04.234Z,9.60
2022-11-10T23:59:24.386Z,9.59
